sensor_id;sensor_type;location;lat;lon;timestamp;pressure;altitude;pressure_sealevel;temperature
68952;BMP180;56000;51.146;17.112;2022-12-11T00:00:51;99356.20;;;0.80
68952;BMP180;56000;51.146;17.112;2022-12-11T00:03:44;99353.00;;;0.80
68952;BMP180;56000;51.146;17.112;2022-12-11T00:06:20;99346.00;;;0.80
68952;BMP180;56000;51.146;17.112;2022-12-11T00:08:55;99346.80;;;0.80
68952;BMP180;56000;51.146;17.112;2022-12-11T00:11:28;99344.00;;;0.80
68952;BMP180;56000;51.146;17.112;2022-12-11T00:14:01;99347.40;;;0.80
68952;BMP180;56000;51.146;17.112;2022-12-11T00:16:34;99346.80;;;0.76
68952;BMP180;56000;51.146;17.112;2022-12-11T00:19:07;99351.60;;;0.72
68952;BMP180;56000;51.146;17.112;2022-12-11T00:21:40;99353.80;;;0.70
68952;BMP180;56000;51.146;17.112;2022-12-11T00:24:13;99350.60;;;0.70
68952;BMP180;56000;51.146;17.112;2022-12-11T00:26:46;99347.80;;;0.80
68952;BMP180;56000;51.146;17.112;2022-12-11T00:29:19;99347.00;;;0.80
68952;BMP180;56000;51.146;17.112;2022-12-11T00:31:51;99344.00;;;0.80
68952;BMP180;56000;51.146;17.112;2022-12-11T00:34:25;99346.60;;;0.80
68952;BMP180;56000;51.146;17.112;2022-12-11T00:36:58;99348.40;;;0.80
68952;BMP180;56000;51.146;17.112;2022-12-11T00:39:31;99351.00;;;0.80
68952;BMP180;56000;51.146;17.112;2022-12-11T00:42:04;99358.80;;;0.80
68952;BMP180;56000;51.146;17.112;2022-12-11T00:44:37;99359.40;;;0.80
68952;BMP180;56000;51.146;17.112;2022-12-11T00:47:10;99362.20;;;0.74
68952;BMP180;56000;51.146;17.112;2022-12-11T00:49:44;99360.40;;;0.74
68952;BMP180;56000;51.146;17.112;2022-12-11T00:52:20;99356.80;;;0.76
68952;BMP180;56000;51.146;17.112;2022-12-11T00:54:53;99358.40;;;0.70
68952;BMP180;56000;51.146;17.112;2022-12-11T00:57:26;99362.40;;;0.70
68952;BMP180;56000;51.146;17.112;2022-12-11T00:59:59;99352.40;;;0.74
68952;BMP180;56000;51.146;17.112;2022-12-11T01:02:32;99345.20;;;0.80
68952;BMP180;56000;51.146;17.112;2022-12-11T01:05:06;99341.80;;;0.80
68952;BMP180;56000;51.146;17.112;2022-12-11T01:07:39;99344.20;;;0.80
68952;BMP180;56000;51.146;17.112;2022-12-11T01:10:14;99346.60;;;0.76
68952;BMP180;56000;51.146;17.112;2022-12-11T01:12:58;99353.20;;;0.80
68952;BMP180;56000;51.146;17.112;2022-12-11T01:15:33;99358.60;;;0.70
68952;BMP180;56000;51.146;17.112;2022-12-11T01:18:13;99360.40;;;0.72
68952;BMP180;56000;51.146;17.112;2022-12-11T01:20:46;99362.40;;;0.70
68952;BMP180;56000;51.146;17.112;2022-12-11T01:23:19;99360.00;;;0.72
68952;BMP180;56000;51.146;17.112;2022-12-11T01:25:52;99364.80;;;0.70
68952;BMP180;56000;51.146;17.112;2022-12-11T01:28:24;99363.40;;;0.70
68952;BMP180;56000;51.146;17.112;2022-12-11T01:30:57;99362.20;;;0.70
68952;BMP180;56000;51.146;17.112;2022-12-11T01:33:30;99364.40;;;0.70
68952;BMP180;56000;51.146;17.112;2022-12-11T01:36:07;99359.40;;;0.70
68952;BMP180;56000;51.146;17.112;2022-12-11T01:38:41;99361.00;;;0.70
68952;BMP180;56000;51.146;17.112;2022-12-11T01:41:14;99363.60;;;0.70
68952;BMP180;56000;51.146;17.112;2022-12-11T01:44:03;99357.60;;;0.70
68952;BMP180;56000;51.146;17.112;2022-12-11T01:46:37;99351.00;;;0.70
68952;BMP180;56000;51.146;17.112;2022-12-11T01:49:13;99348.60;;;0.68
68952;BMP180;56000;51.146;17.112;2022-12-11T01:51:49;99354.80;;;0.62
68952;BMP180;56000;51.146;17.112;2022-12-11T01:54:26;99351.80;;;0.60
68952;BMP180;56000;51.146;17.112;2022-12-11T01:57:03;99353.00;;;0.60
68952;BMP180;56000;51.146;17.112;2022-12-11T01:59:40;99351.00;;;0.64
68952;BMP180;56000;51.146;17.112;2022-12-11T02:02:19;99347.40;;;0.62
68952;BMP180;56000;51.146;17.112;2022-12-11T02:04:53;99342.40;;;0.60
68952;BMP180;56000;51.146;17.112;2022-12-11T02:07:26;99339.20;;;0.60
68952;BMP180;56000;51.146;17.112;2022-12-11T02:09:59;99330.40;;;0.60
68952;BMP180;56000;51.146;17.112;2022-12-11T02:12:41;99320.40;;;0.60
68952;BMP180;56000;51.146;17.112;2022-12-11T02:15:23;99318.80;;;0.58
68952;BMP180;56000;51.146;17.112;2022-12-11T02:18:06;99311.80;;;0.60
68952;BMP180;56000;51.146;17.112;2022-12-11T02:20:46;99304.40;;;0.58
68952;BMP180;56000;51.146;17.112;2022-12-11T02:23:57;99305.00;;;0.54
68952;BMP180;56000;51.146;17.112;2022-12-11T02:26:50;99307.00;;;0.50
68952;BMP180;56000;51.146;17.112;2022-12-11T02:29:33;99299.60;;;0.50
68952;BMP180;56000;51.146;17.112;2022-12-11T02:32:12;99302.40;;;0.50
68952;BMP180;56000;51.146;17.112;2022-12-11T02:34:50;99297.60;;;0.42
68952;BMP180;56000;51.146;17.112;2022-12-11T02:37:28;99296.60;;;0.40
68952;BMP180;56000;51.146;17.112;2022-12-11T02:40:03;99300.60;;;0.42
68952;BMP180;56000;51.146;17.112;2022-12-11T02:42:41;99306.80;;;0.50
68952;BMP180;56000;51.146;17.112;2022-12-11T02:45:16;99307.60;;;0.50
68952;BMP180;56000;51.146;17.112;2022-12-11T02:47:51;99310.40;;;0.50
68952;BMP180;56000;51.146;17.112;2022-12-11T02:50:25;99316.40;;;0.50
68952;BMP180;56000;51.146;17.112;2022-12-11T02:53:00;99316.00;;;0.50
68952;BMP180;56000;51.146;17.112;2022-12-11T02:55:36;99305.40;;;0.44
68952;BMP180;56000;51.146;17.112;2022-12-11T02:58:14;99305.80;;;0.42
68952;BMP180;56000;51.146;17.112;2022-12-11T03:00:48;99310.00;;;0.40
68952;BMP180;56000;51.146;17.112;2022-12-11T03:03:22;99305.60;;;0.40
68952;BMP180;56000;51.146;17.112;2022-12-11T03:05:55;99313.80;;;0.40
68952;BMP180;56000;51.146;17.112;2022-12-11T03:08:28;99319.20;;;0.40
68952;BMP180;56000;51.146;17.112;2022-12-11T03:11:01;99318.80;;;0.40
68952;BMP180;56000;51.146;17.112;2022-12-11T03:13:34;99317.40;;;0.40
68952;BMP180;56000;51.146;17.112;2022-12-11T03:16:13;99315.00;;;0.40
68952;BMP180;56000;51.146;17.112;2022-12-11T03:18:56;99318.80;;;0.40
68952;BMP180;56000;51.146;17.112;2022-12-11T03:21:37;99323.60;;;0.40
68952;BMP180;56000;51.146;17.112;2022-12-11T03:24:16;99328.00;;;0.40
68952;BMP180;56000;51.146;17.112;2022-12-11T03:26:58;99332.40;;;0.30
68952;BMP180;56000;51.146;17.112;2022-12-11T03:29:41;99326.20;;;0.30
68952;BMP180;56000;51.146;17.112;2022-12-11T03:32:20;99324.40;;;0.30
68952;BMP180;56000;51.146;17.112;2022-12-11T03:34:58;99326.00;;;0.30
68952;BMP180;56000;51.146;17.112;2022-12-11T03:37:36;99327.60;;;0.30
68952;BMP180;56000;51.146;17.112;2022-12-11T03:40:15;99326.80;;;0.30
68952;BMP180;56000;51.146;17.112;2022-12-11T03:42:51;99330.20;;;0.28
68952;BMP180;56000;51.146;17.112;2022-12-11T03:45:27;99333.40;;;0.26
68952;BMP180;56000;51.146;17.112;2022-12-11T03:48:02;99329.20;;;0.20
68952;BMP180;56000;51.146;17.112;2022-12-11T03:50:35;99327.20;;;0.20
68952;BMP180;56000;51.146;17.112;2022-12-11T03:53:09;99323.60;;;0.20
68952;BMP180;56000;51.146;17.112;2022-12-11T03:55:42;99318.40;;;0.20
68952;BMP180;56000;51.146;17.112;2022-12-11T03:58:15;99321.20;;;0.20
68952;BMP180;56000;51.146;17.112;2022-12-11T04:00:48;99322.60;;;0.18
68952;BMP180;56000;51.146;17.112;2022-12-11T04:03:21;99316.80;;;0.14
68952;BMP180;56000;51.146;17.112;2022-12-11T04:05:56;99313.80;;;0.16
68952;BMP180;56000;51.146;17.112;2022-12-11T04:08:29;99299.00;;;0.16
68952;BMP180;56000;51.146;17.112;2022-12-11T04:11:03;99298.40;;;0.20
68952;BMP180;56000;51.146;17.112;2022-12-11T04:13:53;99299.60;;;0.14
68952;BMP180;56000;51.146;17.112;2022-12-11T04:16:40;99299.60;;;0.14
68952;BMP180;56000;51.146;17.112;2022-12-11T04:19:13;99301.40;;;0.10
68952;BMP180;56000;51.146;17.112;2022-12-11T04:22:04;99298.40;;;0.10
68952;BMP180;56000;51.146;17.112;2022-12-11T04:24:50;99300.80;;;0.18
68952;BMP180;56000;51.146;17.112;2022-12-11T04:27:23;99298.00;;;0.20
68952;BMP180;56000;51.146;17.112;2022-12-11T04:30:18;99297.00;;;0.20
68952;BMP180;56000;51.146;17.112;2022-12-11T04:32:53;99289.00;;;0.14
68952;BMP180;56000;51.146;17.112;2022-12-11T04:35:26;99287.60;;;0.18
68952;BMP180;56000;51.146;17.112;2022-12-11T04:37:59;99285.80;;;0.14
68952;BMP180;56000;51.146;17.112;2022-12-11T04:40:32;99288.80;;;0.14
68952;BMP180;56000;51.146;17.112;2022-12-11T04:43:05;99290.20;;;0.14
68952;BMP180;56000;51.146;17.112;2022-12-11T04:45:38;99286.40;;;0.12
68952;BMP180;56000;51.146;17.112;2022-12-11T04:48:11;99282.20;;;0.10
68952;BMP180;56000;51.146;17.112;2022-12-11T04:50:44;99279.80;;;0.10
68952;BMP180;56000;51.146;17.112;2022-12-11T04:53:17;99272.40;;;0.10
68952;BMP180;56000;51.146;17.112;2022-12-11T04:55:50;99279.00;;;0.10
68952;BMP180;56000;51.146;17.112;2022-12-11T04:58:24;99281.20;;;0.10
68952;BMP180;56000;51.146;17.112;2022-12-11T05:00:57;99282.20;;;0.10
68952;BMP180;56000;51.146;17.112;2022-12-11T05:03:30;99277.60;;;0.10
68952;BMP180;56000;51.146;17.112;2022-12-11T05:06:03;99279.40;;;0.10
68952;BMP180;56000;51.146;17.112;2022-12-11T05:08:38;99278.80;;;0.10
68952;BMP180;56000;51.146;17.112;2022-12-11T05:11:14;99272.60;;;0.10
68952;BMP180;56000;51.146;17.112;2022-12-11T05:13:47;99273.00;;;0.10
68952;BMP180;56000;51.146;17.112;2022-12-11T05:16:19;99274.00;;;0.02
68952;BMP180;56000;51.146;17.112;2022-12-11T05:18:53;99275.60;;;0.00
68952;BMP180;56000;51.146;17.112;2022-12-11T05:21:25;99273.00;;;0.04
68952;BMP180;56000;51.146;17.112;2022-12-11T05:24:07;99264.40;;;0.02
68952;BMP180;56000;51.146;17.112;2022-12-11T05:26:40;99269.40;;;0.00
68952;BMP180;56000;51.146;17.112;2022-12-11T05:29:12;99264.40;;;0.00
68952;BMP180;56000;51.146;17.112;2022-12-11T05:31:45;99265.20;;;0.00
68952;BMP180;56000;51.146;17.112;2022-12-11T05:34:18;99271.40;;;0.00
68952;BMP180;56000;51.146;17.112;2022-12-11T05:36:51;99273.40;;;0.00
68952;BMP180;56000;51.146;17.112;2022-12-11T05:39:24;99265.40;;;0.00
68952;BMP180;56000;51.146;17.112;2022-12-11T05:41:57;99269.20;;;0.00
68952;BMP180;56000;51.146;17.112;2022-12-11T05:44:30;99265.20;;;0.00
68952;BMP180;56000;51.146;17.112;2022-12-11T05:47:03;99265.80;;;0.00
68952;BMP180;56000;51.146;17.112;2022-12-11T05:49:36;99258.60;;;0.00
68952;BMP180;56000;51.146;17.112;2022-12-11T05:52:09;99262.00;;;-0.06
68952;BMP180;56000;51.146;17.112;2022-12-11T05:54:42;99265.00;;;-0.10
68952;BMP180;56000;51.146;17.112;2022-12-11T05:57:15;99262.00;;;-0.10
68952;BMP180;56000;51.146;17.112;2022-12-11T05:59:48;99267.60;;;-0.10
68952;BMP180;56000;51.146;17.112;2022-12-11T06:02:21;99260.60;;;-0.10
68952;BMP180;56000;51.146;17.112;2022-12-11T06:04:54;99264.80;;;-0.10
68952;BMP180;56000;51.146;17.112;2022-12-11T06:07:27;99273.40;;;-0.10
68952;BMP180;56000;51.146;17.112;2022-12-11T06:10:00;99273.20;;;-0.10
68952;BMP180;56000;51.146;17.112;2022-12-11T06:12:32;99271.40;;;-0.10
68952;BMP180;56000;51.146;17.112;2022-12-11T06:15:07;99276.60;;;-0.10
68952;BMP180;56000;51.146;17.112;2022-12-11T06:17:40;99279.60;;;-0.10
68952;BMP180;56000;51.146;17.112;2022-12-11T06:20:13;99280.20;;;-0.10
68952;BMP180;56000;51.146;17.112;2022-12-11T06:22:46;99278.80;;;-0.10
68952;BMP180;56000;51.146;17.112;2022-12-11T06:25:19;99280.20;;;-0.10
68952;BMP180;56000;51.146;17.112;2022-12-11T06:27:52;99289.00;;;-0.10
68952;BMP180;56000;51.146;17.112;2022-12-11T06:30:25;99291.40;;;-0.10
68952;BMP180;56000;51.146;17.112;2022-12-11T06:33:09;99291.80;;;-0.10
68952;BMP180;56000;51.146;17.112;2022-12-11T06:35:42;99301.80;;;-0.10
68952;BMP180;56000;51.146;17.112;2022-12-11T06:38:15;99303.20;;;-0.10
68952;BMP180;56000;51.146;17.112;2022-12-11T06:40:55;99304.20;;;-0.10
68952;BMP180;56000;51.146;17.112;2022-12-11T06:43:28;99304.40;;;-0.10
68952;BMP180;56000;51.146;17.112;2022-12-11T06:46:03;99313.60;;;-0.10
68952;BMP180;56000;51.146;17.112;2022-12-11T06:48:37;99309.20;;;-0.10
68952;BMP180;56000;51.146;17.112;2022-12-11T06:51:12;99305.80;;;-0.10
68952;BMP180;56000;51.146;17.112;2022-12-11T06:53:48;99308.60;;;-0.10
68952;BMP180;56000;51.146;17.112;2022-12-11T06:56:23;99306.40;;;-0.10
68952;BMP180;56000;51.146;17.112;2022-12-11T06:58:55;99310.40;;;-0.10
68952;BMP180;56000;51.146;17.112;2022-12-11T07:01:35;99316.80;;;-0.10
68952;BMP180;56000;51.146;17.112;2022-12-11T07:04:09;99316.80;;;-0.10
68952;BMP180;56000;51.146;17.112;2022-12-11T07:06:42;99317.60;;;-0.10
68952;BMP180;56000;51.146;17.112;2022-12-11T07:09:15;99314.40;;;-0.10
68952;BMP180;56000;51.146;17.112;2022-12-11T07:11:49;99310.80;;;-0.10
68952;BMP180;56000;51.146;17.112;2022-12-11T07:14:22;99313.20;;;-0.10
68952;BMP180;56000;51.146;17.112;2022-12-11T07:16:55;99317.60;;;-0.10
68952;BMP180;56000;51.146;17.112;2022-12-11T07:19:28;99316.40;;;-0.10
68952;BMP180;56000;51.146;17.112;2022-12-11T07:22:01;99311.00;;;-0.10
68952;BMP180;56000;51.146;17.112;2022-12-11T07:24:34;99313.60;;;-0.10
68952;BMP180;56000;51.146;17.112;2022-12-11T07:27:07;99320.20;;;-0.10
68952;BMP180;56000;51.146;17.112;2022-12-11T07:29:40;99320.80;;;-0.10
68952;BMP180;56000;51.146;17.112;2022-12-11T07:32:13;99312.40;;;-0.10
68952;BMP180;56000;51.146;17.112;2022-12-11T07:34:46;99311.40;;;-0.10
68952;BMP180;56000;51.146;17.112;2022-12-11T07:37:22;99318.60;;;-0.10
68952;BMP180;56000;51.146;17.112;2022-12-11T07:39:55;99324.40;;;-0.10
68952;BMP180;56000;51.146;17.112;2022-12-11T07:42:28;99323.00;;;-0.10
68952;BMP180;56000;51.146;17.112;2022-12-11T07:45:01;99324.60;;;-0.10
68952;BMP180;56000;51.146;17.112;2022-12-11T07:47:35;99321.60;;;-0.10
68952;BMP180;56000;51.146;17.112;2022-12-11T07:50:09;99316.60;;;-0.10
68952;BMP180;56000;51.146;17.112;2022-12-11T07:52:41;99314.00;;;-0.10
68952;BMP180;56000;51.146;17.112;2022-12-11T07:55:15;99311.60;;;-0.10
68952;BMP180;56000;51.146;17.112;2022-12-11T07:57:47;99308.00;;;-0.10
68952;BMP180;56000;51.146;17.112;2022-12-11T08:00:21;99316.60;;;-0.10
68952;BMP180;56000;51.146;17.112;2022-12-11T08:02:54;99310.40;;;-0.10
68952;BMP180;56000;51.146;17.112;2022-12-11T08:05:27;99308.20;;;-0.10
68952;BMP180;56000;51.146;17.112;2022-12-11T08:08:00;99310.60;;;-0.10
68952;BMP180;56000;51.146;17.112;2022-12-11T08:10:33;99314.60;;;-0.10
68952;BMP180;56000;51.146;17.112;2022-12-11T08:13:05;99323.40;;;-0.08
68952;BMP180;56000;51.146;17.112;2022-12-11T08:15:38;99324.20;;;0.00
68952;BMP180;56000;51.146;17.112;2022-12-11T08:18:12;99323.60;;;0.00
68952;BMP180;56000;51.146;17.112;2022-12-11T08:20:45;99319.60;;;0.00
68952;BMP180;56000;51.146;17.112;2022-12-11T08:23:17;99323.20;;;0.00
68952;BMP180;56000;51.146;17.112;2022-12-11T08:25:50;99317.60;;;0.00
68952;BMP180;56000;51.146;17.112;2022-12-11T08:28:23;99311.60;;;-0.04
68952;BMP180;56000;51.146;17.112;2022-12-11T08:30:58;99310.80;;;0.00
68952;BMP180;56000;51.146;17.112;2022-12-11T08:33:31;99307.20;;;0.00
68952;BMP180;56000;51.146;17.112;2022-12-11T08:36:08;99311.80;;;0.00
68952;BMP180;56000;51.146;17.112;2022-12-11T08:38:41;99313.40;;;0.00
68952;BMP180;56000;51.146;17.112;2022-12-11T08:41:17;99311.20;;;-0.02
68952;BMP180;56000;51.146;17.112;2022-12-11T08:43:51;99309.80;;;-0.02
68952;BMP180;56000;51.146;17.112;2022-12-11T08:46:27;99310.00;;;0.00
68952;BMP180;56000;51.146;17.112;2022-12-11T08:49:01;99308.00;;;0.00
68952;BMP180;56000;51.146;17.112;2022-12-11T08:51:34;99308.20;;;-0.08
68952;BMP180;56000;51.146;17.112;2022-12-11T08:54:08;99307.20;;;-0.10
68952;BMP180;56000;51.146;17.112;2022-12-11T08:56:41;99303.60;;;-0.06
68952;BMP180;56000;51.146;17.112;2022-12-11T08:59:14;99313.00;;;0.00
68952;BMP180;56000;51.146;17.112;2022-12-11T09:01:48;99318.40;;;0.00
68952;BMP180;56000;51.146;17.112;2022-12-11T09:04:22;99324.20;;;-0.06
68952;BMP180;56000;51.146;17.112;2022-12-11T09:06:55;99320.80;;;-0.10
68952;BMP180;56000;51.146;17.112;2022-12-11T09:09:27;99318.00;;;-0.10
68952;BMP180;56000;51.146;17.112;2022-12-11T09:12:00;99314.20;;;-0.10
68952;BMP180;56000;51.146;17.112;2022-12-11T09:14:35;99315.00;;;-0.10
68952;BMP180;56000;51.146;17.112;2022-12-11T09:17:08;99311.40;;;-0.10
68952;BMP180;56000;51.146;17.112;2022-12-11T09:19:40;99305.20;;;-0.10
68952;BMP180;56000;51.146;17.112;2022-12-11T09:22:14;99299.20;;;-0.10
68952;BMP180;56000;51.146;17.112;2022-12-11T09:24:47;99301.00;;;-0.10
68952;BMP180;56000;51.146;17.112;2022-12-11T09:27:20;99295.40;;;-0.10
68952;BMP180;56000;51.146;17.112;2022-12-11T09:29:54;99291.00;;;-0.10
68952;BMP180;56000;51.146;17.112;2022-12-11T09:32:27;99285.40;;;-0.10
68952;BMP180;56000;51.146;17.112;2022-12-11T09:35:00;99287.60;;;-0.20
68952;BMP180;56000;51.146;17.112;2022-12-11T09:37:35;99276.60;;;-0.20
68952;BMP180;56000;51.146;17.112;2022-12-11T09:40:10;99273.00;;;-0.18
68952;BMP180;56000;51.146;17.112;2022-12-11T09:42:52;99269.60;;;-0.12
68952;BMP180;56000;51.146;17.112;2022-12-11T09:45:25;99265.20;;;-0.10
68952;BMP180;56000;51.146;17.112;2022-12-11T09:48:00;99265.00;;;-0.10
68952;BMP180;56000;51.146;17.112;2022-12-11T09:50:34;99260.80;;;-0.10
68952;BMP180;56000;51.146;17.112;2022-12-11T09:53:13;99261.40;;;-0.10
68952;BMP180;56000;51.146;17.112;2022-12-11T09:55:57;99256.40;;;-0.10
68952;BMP180;56000;51.146;17.112;2022-12-11T09:58:42;99257.20;;;-0.10
68952;BMP180;56000;51.146;17.112;2022-12-11T10:01:24;99253.80;;;-0.16
68952;BMP180;56000;51.146;17.112;2022-12-11T10:04:16;99251.00;;;-0.10
68952;BMP180;56000;51.146;17.112;2022-12-11T10:06:56;99247.00;;;-0.10
68952;BMP180;56000;51.146;17.112;2022-12-11T10:09:38;99250.60;;;-0.10
68952;BMP180;56000;51.146;17.112;2022-12-11T10:12:24;99255.60;;;-0.10
68952;BMP180;56000;51.146;17.112;2022-12-11T10:15:15;99249.20;;;-0.10
68952;BMP180;56000;51.146;17.112;2022-12-11T10:17:51;99245.60;;;-0.10
68952;BMP180;56000;51.146;17.112;2022-12-11T10:20:34;99245.40;;;-0.10
68952;BMP180;56000;51.146;17.112;2022-12-11T10:23:20;99238.80;;;-0.10
68952;BMP180;56000;51.146;17.112;2022-12-11T10:26:01;99232.00;;;-0.10
68952;BMP180;56000;51.146;17.112;2022-12-11T10:28:36;99232.40;;;-0.10
68952;BMP180;56000;51.146;17.112;2022-12-11T10:31:18;99222.20;;;-0.10
68952;BMP180;56000;51.146;17.112;2022-12-11T10:34:00;99223.40;;;-0.10
68952;BMP180;56000;51.146;17.112;2022-12-11T10:36:37;99224.20;;;-0.10
68952;BMP180;56000;51.146;17.112;2022-12-11T10:39:15;99219.40;;;-0.10
68952;BMP180;56000;51.146;17.112;2022-12-11T10:41:50;99227.00;;;0.00
68952;BMP180;56000;51.146;17.112;2022-12-11T10:44:26;99215.60;;;0.00
68952;BMP180;56000;51.146;17.112;2022-12-11T10:47:08;99219.00;;;0.00
68952;BMP180;56000;51.146;17.112;2022-12-11T10:49:56;99218.40;;;0.00
68952;BMP180;56000;51.146;17.112;2022-12-11T10:52:32;99217.80;;;0.00
68952;BMP180;56000;51.146;17.112;2022-12-11T10:55:19;99225.00;;;0.00
68952;BMP180;56000;51.146;17.112;2022-12-11T10:58:01;99221.00;;;0.00
68952;BMP180;56000;51.146;17.112;2022-12-11T11:00:39;99210.80;;;0.00
68952;BMP180;56000;51.146;17.112;2022-12-11T11:03:24;99214.80;;;-0.04
68952;BMP180;56000;51.146;17.112;2022-12-11T11:06:13;99217.00;;;-0.10
68952;BMP180;56000;51.146;17.112;2022-12-11T11:08:49;99208.40;;;-0.10
68952;BMP180;56000;51.146;17.112;2022-12-11T11:11:29;99205.80;;;-0.10
68952;BMP180;56000;51.146;17.112;2022-12-11T11:14:14;99205.40;;;-0.14
68952;BMP180;56000;51.146;17.112;2022-12-11T11:16:49;99201.60;;;-0.16
68952;BMP180;56000;51.146;17.112;2022-12-11T11:19:30;99196.20;;;-0.20
68952;BMP180;56000;51.146;17.112;2022-12-11T11:22:06;99195.80;;;-0.10
68952;BMP180;56000;51.146;17.112;2022-12-11T11:24:44;99191.60;;;-0.10
68952;BMP180;56000;51.146;17.112;2022-12-11T11:27:29;99186.00;;;-0.10
68952;BMP180;56000;51.146;17.112;2022-12-11T11:30:06;99183.00;;;-0.14
68952;BMP180;56000;51.146;17.112;2022-12-11T11:32:50;99178.20;;;-0.20
68952;BMP180;56000;51.146;17.112;2022-12-11T11:35:27;99177.00;;;-0.20
68952;BMP180;56000;51.146;17.112;2022-12-11T11:38:15;99178.00;;;-0.20
68952;BMP180;56000;51.146;17.112;2022-12-11T11:40:57;99181.60;;;-0.20
68952;BMP180;56000;51.146;17.112;2022-12-11T11:43:43;99178.40;;;-0.20
68952;BMP180;56000;51.146;17.112;2022-12-11T11:46:23;99174.40;;;-0.20
68952;BMP180;56000;51.146;17.112;2022-12-11T11:49:05;99167.00;;;-0.30
68952;BMP180;56000;51.146;17.112;2022-12-11T11:51:44;99174.60;;;-0.30
68952;BMP180;56000;51.146;17.112;2022-12-11T11:54:29;99170.60;;;-0.30
68952;BMP180;56000;51.146;17.112;2022-12-11T11:57:10;99168.80;;;-0.32
68952;BMP180;56000;51.146;17.112;2022-12-11T11:59:50;99168.40;;;-0.38
68952;BMP180;56000;51.146;17.112;2022-12-11T12:02:26;99166.80;;;-0.40
68952;BMP180;56000;51.146;17.112;2022-12-11T12:04:59;99173.80;;;-0.40
68952;BMP180;56000;51.146;17.112;2022-12-11T12:07:38;99169.60;;;-0.40
68952;BMP180;56000;51.146;17.112;2022-12-11T12:10:20;99164.60;;;-0.40
68952;BMP180;56000;51.146;17.112;2022-12-11T12:13:02;99165.40;;;-0.40
68952;BMP180;56000;51.146;17.112;2022-12-11T12:16:00;99166.80;;;-0.40
68952;BMP180;56000;51.146;17.112;2022-12-11T12:18:40;99163.20;;;-0.40
68952;BMP180;56000;51.146;17.112;2022-12-11T12:21:28;99160.40;;;-0.40
68952;BMP180;56000;51.146;17.112;2022-12-11T12:24:16;99160.00;;;-0.40
68952;BMP180;56000;51.146;17.112;2022-12-11T12:26:59;99155.60;;;-0.40
68952;BMP180;56000;51.146;17.112;2022-12-11T12:29:44;99158.60;;;-0.40
68952;BMP180;56000;51.146;17.112;2022-12-11T12:32:24;99157.40;;;-0.40
68952;BMP180;56000;51.146;17.112;2022-12-11T12:35:11;99155.20;;;-0.40
68952;BMP180;56000;51.146;17.112;2022-12-11T12:37:57;99153.80;;;-0.42
68952;BMP180;56000;51.146;17.112;2022-12-11T12:40:42;99149.00;;;-0.50
68952;BMP180;56000;51.146;17.112;2022-12-11T12:43:44;99148.80;;;-0.50
68952;BMP180;56000;51.146;17.112;2022-12-11T12:46:27;99147.80;;;-0.50
68952;BMP180;56000;51.146;17.112;2022-12-11T12:49:02;99152.20;;;-0.50
68952;BMP180;56000;51.146;17.112;2022-12-11T12:51:37;99154.00;;;-0.50
68952;BMP180;56000;51.146;17.112;2022-12-11T12:54:13;99147.60;;;-0.50
68952;BMP180;56000;51.146;17.112;2022-12-11T12:56:47;99149.20;;;-0.50
68952;BMP180;56000;51.146;17.112;2022-12-11T12:59:26;99150.80;;;-0.50
68952;BMP180;56000;51.146;17.112;2022-12-11T13:02:01;99153.20;;;-0.50
68952;BMP180;56000;51.146;17.112;2022-12-11T13:04:41;99155.60;;;-0.50
68952;BMP180;56000;51.146;17.112;2022-12-11T13:07:32;99156.60;;;-0.50
68952;BMP180;56000;51.146;17.112;2022-12-11T13:10:21;99151.00;;;-0.50
68952;BMP180;56000;51.146;17.112;2022-12-11T13:12:54;99158.00;;;-0.50
68952;BMP180;56000;51.146;17.112;2022-12-11T13:15:35;99159.40;;;-0.50
68952;BMP180;56000;51.146;17.112;2022-12-11T13:18:33;99156.60;;;-0.50
68952;BMP180;56000;51.146;17.112;2022-12-11T13:21:31;99157.80;;;-0.50
68952;BMP180;56000;51.146;17.112;2022-12-11T13:24:26;99156.00;;;-0.52
68952;BMP180;56000;51.146;17.112;2022-12-11T13:27:21;99157.60;;;-0.54
68952;BMP180;56000;51.146;17.112;2022-12-11T13:30:15;99153.20;;;-0.56
68952;BMP180;56000;51.146;17.112;2022-12-11T13:33:01;99159.00;;;-0.60
68952;BMP180;56000;51.146;17.112;2022-12-11T13:35:35;99160.20;;;-0.60
68952;BMP180;56000;51.146;17.112;2022-12-11T13:38:17;99156.80;;;-0.60
68952;BMP180;56000;51.146;17.112;2022-12-11T13:40:54;99152.20;;;-0.60
68952;BMP180;56000;51.146;17.112;2022-12-11T13:43:31;99152.80;;;-0.60
68952;BMP180;56000;51.146;17.112;2022-12-11T13:46:07;99161.40;;;-0.70
68952;BMP180;56000;51.146;17.112;2022-12-11T13:48:47;99162.20;;;-0.70
68952;BMP180;56000;51.146;17.112;2022-12-11T13:51:24;99164.60;;;-0.70
68952;BMP180;56000;51.146;17.112;2022-12-11T13:54:17;99161.00;;;-0.70
68952;BMP180;56000;51.146;17.112;2022-12-11T13:57:00;99157.40;;;-0.70
68952;BMP180;56000;51.146;17.112;2022-12-11T13:59:37;99157.60;;;-0.70
68952;BMP180;56000;51.146;17.112;2022-12-11T14:02:19;99160.80;;;-0.70
68952;BMP180;56000;51.146;17.112;2022-12-11T14:04:53;99163.00;;;-0.70
68952;BMP180;56000;51.146;17.112;2022-12-11T14:07:29;99160.80;;;-0.70
68952;BMP180;56000;51.146;17.112;2022-12-11T14:10:08;99159.80;;;-0.70
68952;BMP180;56000;51.146;17.112;2022-12-11T14:12:43;99160.20;;;-0.70
68952;BMP180;56000;51.146;17.112;2022-12-11T14:15:18;99164.20;;;-0.70
68952;BMP180;56000;51.146;17.112;2022-12-11T14:17:52;99170.00;;;-0.70
68952;BMP180;56000;51.146;17.112;2022-12-11T14:20:30;99173.00;;;-0.70
68952;BMP180;56000;51.146;17.112;2022-12-11T14:23:15;99170.60;;;-0.70
68952;BMP180;56000;51.146;17.112;2022-12-11T14:25:57;99169.20;;;-0.70
68952;BMP180;56000;51.146;17.112;2022-12-11T14:28:37;99169.20;;;-0.70
68952;BMP180;56000;51.146;17.112;2022-12-11T14:31:14;99166.80;;;-0.70
68952;BMP180;56000;51.146;17.112;2022-12-11T14:33:50;99164.60;;;-0.70
68952;BMP180;56000;51.146;17.112;2022-12-11T14:36:25;99164.80;;;-0.70
68952;BMP180;56000;51.146;17.112;2022-12-11T14:39:02;99158.60;;;-0.70
68952;BMP180;56000;51.146;17.112;2022-12-11T14:41:44;99156.60;;;-0.70
68952;BMP180;56000;51.146;17.112;2022-12-11T14:44:21;99155.20;;;-0.70
68952;BMP180;56000;51.146;17.112;2022-12-11T14:46:56;99157.40;;;-0.74
68952;BMP180;56000;51.146;17.112;2022-12-11T14:49:36;99145.40;;;-0.80
68952;BMP180;56000;51.146;17.112;2022-12-11T14:52:13;99150.60;;;-0.80
68952;BMP180;56000;51.146;17.112;2022-12-11T14:54:50;99146.20;;;-0.80
68952;BMP180;56000;51.146;17.112;2022-12-11T14:57:27;99142.40;;;-0.90